Time;durP1;ratioP1;P1;durP2;ratioP2;P2;SDS_P1;SDS_P2;PMS_P1;PMS_P2;Temp;Humidity;BMP_temperature;BMP_pressure;BME280_temperature;BME280_humidity;BME280_pressure;Samples;Min_cycle;Max_cycle;Signal;HPM_P1;HPM_P2
2022/05/30 00:00:33;;;;;;;7.20;2.70;;;10.70;99.90;;;;;;5032778;28;20255;-71
2022/05/30 00:02:58;;;;;;;3.87;1.80;;;10.70;99.90;;;;;;5032991;28;20282;-72
2022/05/30 00:05:25;;;;;;;2.47;2.00;;;10.60;99.90;;;;;;5035446;28;20401;-72
2022/05/30 00:07:50;;;;;;;8.97;2.07;;;10.60;99.90;;;;;;5035269;28;20199;-68
2022/05/30 00:10:19;;;;;;;2.30;1.57;;;10.50;99.90;;;;;;5036466;28;20497;-67
2022/05/30 00:12:45;;;;;;;6.00;1.97;;;10.50;99.90;;;;;;5036433;28;20195;-72
2022/05/30 00:15:14;;;;;;;2.37;1.73;;;10.40;99.90;;;;;;5035409;28;20443;-68
2022/05/30 00:17:40;;;;;;;2.60;1.80;;;10.50;99.90;;;;;;5035272;28;20229;-72
2022/05/30 00:20:07;;;;;;;4.33;2.10;;;10.50;99.90;;;;;;5036227;28;20391;-71
2022/05/30 00:22:33;;;;;;;5.63;1.70;;;10.50;99.90;;;;;;5035117;28;20184;-72
2022/05/30 00:24:58;;;;;;;6.83;2.03;;;10.50;99.90;;;;;;5035970;28;20509;-72
2022/05/30 00:27:24;;;;;;;10.03;2.30;;;10.60;99.90;;;;;;5035193;28;20407;-72
2022/05/30 00:29:50;;;;;;;12.10;2.47;;;10.60;99.90;;;;;;5035927;28;20214;-69
2022/05/30 00:32:15;;;;;;;2.47;2.27;;;10.50;99.90;;;;;;5035999;28;20632;-67
2022/05/30 00:34:42;;;;;;;3.20;2.10;;;10.40;99.90;;;;;;5035853;28;20282;-72
2022/05/30 00:37:07;;;;;;;5.80;2.53;;;10.40;99.90;;;;;;5035152;28;20423;-72
2022/05/30 00:39:33;;;;;;;3.43;1.90;;;10.40;99.90;;;;;;5034741;28;20209;-72
2022/05/30 00:42:07;;;;;;;3.37;1.90;;;10.40;99.90;;;;;;5035713;28;20186;-68
2022/05/30 00:44:33;;;;;;;4.23;2.43;;;10.50;99.90;;;;;;5035797;28;20171;-72
2022/05/30 00:46:59;;;;;;;4.90;2.23;;;10.50;99.90;;;;;;5034849;28;20388;-67
2022/05/30 00:49:25;;;;;;;4.37;2.10;;;10.40;99.90;;;;;;5035498;28;20458;-71
2022/05/30 00:51:55;;;;;;;4.60;2.50;;;10.40;99.90;;;;;;5035654;28;20521;-72
2022/05/30 00:54:27;;;;;;;6.03;2.57;;;10.40;99.90;;;;;;5034509;28;20183;-68
2022/05/30 00:56:57;;;;;;;2.07;1.87;;;10.40;99.90;;;;;;5034728;28;20412;-68
2022/05/30 00:59:23;;;;;;;2.27;2.10;;;10.40;99.90;;;;;;5035334;28;20467;-67
2022/05/30 01:01:49;;;;;;;1.90;1.70;;;10.40;99.90;;;;;;5035285;28;20479;-68
2022/05/30 01:07:04;;;;;;;2.03;1.93;;;10.40;99.90;;;;;;5034615;28;20587;-67
2022/05/30 01:09:36;;;;;;;4.97;2.80;;;10.40;99.90;;;;;;5035139;28;20865;-67
2022/05/30 01:12:02;;;;;;;3.20;2.27;;;10.40;99.90;;;;;;5034028;28;20550;-73
2022/05/30 01:14:34;;;;;;;3.10;2.77;;;10.40;99.90;;;;;;5034725;28;20468;-71
2022/05/30 01:17:02;;;;;;;2.73;2.37;;;10.30;99.90;;;;;;5033842;28;20164;-67
2022/05/30 01:19:39;;;;;;;2.13;1.80;;;10.30;99.90;;;;;;5035053;28;20922;-72
2022/05/30 01:22:23;;;;;;;4.00;1.80;;;10.40;99.90;;;;;;5034857;28;20920;-73
2022/05/30 01:25:14;;;;;;;2.90;1.90;;;10.40;99.90;;;;;;5050226;28;20471;-68
2022/05/30 01:27:58;;;;;;;2.07;1.87;;;10.40;99.90;;;;;;5032927;28;20412;-73
2022/05/30 01:30:24;;;;;;;3.03;2.17;;;10.40;99.90;;;;;;5034600;28;20458;-67
2022/05/30 01:32:49;;;;;;;2.37;1.90;;;10.30;99.90;;;;;;5035022;28;20489;-72
2022/05/30 01:35:23;;;;;;;6.30;1.90;;;10.20;99.90;;;;;;5033477;28;20190;-67
2022/05/30 01:37:49;;;;;;;4.00;2.40;;;10.30;99.90;;;;;;5032758;28;20215;-72
2022/05/30 01:40:14;;;;;;;5.63;2.03;;;10.30;99.90;;;;;;5034553;28;20924;-72
2022/05/30 01:42:40;;;;;;;3.00;2.10;;;10.30;99.90;;;;;;5034571;28;20210;-72
2022/05/30 01:45:06;;;;;;;4.90;2.10;;;10.20;99.90;;;;;;5034661;28;20175;-67
2022/05/30 01:47:32;;;;;;;4.93;2.27;;;10.20;99.90;;;;;;5033634;28;20172;-69
2022/05/30 01:49:58;;;;;;;4.63;2.23;;;10.20;99.90;;;;;;5034295;28;20461;-71
2022/05/30 01:52:23;;;;;;;3.03;2.10;;;10.20;99.90;;;;;;5033341;28;20907;-68
2022/05/30 01:54:49;;;;;;;4.03;2.50;;;10.20;99.90;;;;;;5034330;28;20171;-71
2022/05/30 01:57:15;;;;;;;2.70;2.07;;;10.20;99.90;;;;;;5033425;28;20175;-68
2022/05/30 01:59:40;;;;;;;4.10;1.57;;;10.30;99.90;;;;;;5034200;28;20214;-72
2022/05/30 02:02:09;;;;;;;2.33;1.60;;;10.30;99.90;;;;;;5034240;28;20170;-72
2022/05/30 02:04:34;;;;;;;2.33;1.90;;;10.30;99.90;;;;;;5034034;28;20179;-69
2022/05/30 02:07:00;;;;;;;4.80;2.20;;;10.30;99.90;;;;;;5033413;28;20405;-67
2022/05/30 02:09:25;;;;;;;5.30;2.10;;;10.30;99.90;;;;;;5032911;28;20218;-67
2022/05/30 02:11:51;;;;;;;2.73;1.77;;;10.30;99.90;;;;;;5032902;28;20262;-71
2022/05/30 02:14:17;;;;;;;4.40;1.80;;;10.40;99.90;;;;;;5033987;28;20176;-71
2022/05/30 02:17:00;;;;;;;2.33;2.00;;;10.30;99.90;;;;;;5033124;28;20179;-71
2022/05/30 02:19:31;;;;;;;4.13;1.97;;;10.30;99.90;;;;;;5033832;28;20214;-71
2022/05/30 02:21:58;;;;;;;4.43;1.93;;;10.30;99.90;;;;;;5034041;28;20491;-67
2022/05/30 02:24:24;;;;;;;3.20;2.20;;;10.40;99.90;;;;;;5032789;28;20453;-72
2022/05/30 02:26:50;;;;;;;1.87;1.70;;;10.30;99.90;;;;;;5032524;28;20422;-68
2022/05/30 02:29:16;;;;;;;6.33;2.10;;;10.40;99.90;;;;;;5033744;28;20846;-72
2022/05/30 02:31:42;;;;;;;2.60;1.70;;;10.40;99.90;;;;;;5032792;28;20189;-71
2022/05/30 02:36:53;;;;;;;4.23;2.80;;;10.40;99.90;;;;;;5032898;28;20647;-72
2022/05/30 02:39:21;;;;;;;3.30;2.00;;;10.40;99.90;;;;;;5033761;28;20434;-71
2022/05/30 02:41:47;;;;;;;5.80;2.00;;;10.40;99.90;;;;;;5033632;28;20845;-71
2022/05/30 02:44:14;;;;;;;3.80;1.87;;;10.40;99.90;;;;;;5032774;28;20399;-71
2022/05/30 02:46:40;;;;;;;3.83;2.20;;;10.30;99.90;;;;;;5032623;28;20771;-68
2022/05/30 02:49:06;;;;;;;4.00;1.87;;;10.30;99.90;;;;;;5033228;28;20483;-67
2022/05/30 02:51:32;;;;;;;3.53;2.27;;;10.30;99.90;;;;;;5033429;28;20180;-67
2022/05/30 02:53:57;;;;;;;2.67;1.63;;;10.30;99.90;;;;;;5033641;28;20550;-71
2022/05/30 02:56:24;;;;;;;7.70;2.50;;;10.20;99.90;;;;;;5033176;28;20171;-71
2022/05/30 02:58:50;;;;;;;2.53;2.30;;;10.20;99.90;;;;;;5032661;28;20195;-67
2022/05/30 03:01:16;;;;;;;4.23;2.00;;;10.20;99.90;;;;;;5032226;28;20932;-68
2022/05/30 03:03:42;;;;;;;4.13;2.03;;;10.10;99.90;;;;;;5032617;28;20449;-68
2022/05/30 03:06:08;;;;;;;2.50;1.67;;;10.10;99.90;;;;;;5033462;28;20759;-67
2022/05/30 03:08:34;;;;;;;2.57;1.93;;;10.00;99.90;;;;;;5032381;28;20422;-67
2022/05/30 03:11:00;;;;;;;2.43;1.67;;;10.00;99.90;;;;;;5033092;28;20793;-68
2022/05/30 03:13:26;;;;;;;2.53;2.33;;;9.90;99.90;;;;;;5031988;28;20182;-72
2022/05/30 03:15:51;;;;;;;6.30;2.63;;;9.90;99.90;;;;;;5033467;28;20194;-71
2022/05/30 03:18:17;;;;;;;3.57;1.97;;;9.90;99.90;;;;;;5031273;28;20206;-71
2022/05/30 03:20:43;;;;;;;2.57;2.00;;;10.00;99.90;;;;;;5033344;28;20186;-71
2022/05/30 03:23:08;;;;;;;7.03;3.83;;;10.00;99.90;;;;;;5033040;28;20413;-70
2022/05/30 03:25:34;;;;;;;2.30;2.10;;;10.00;99.90;;;;;;5033135;28;20193;-68
2022/05/30 03:28:01;;;;;;;2.90;1.83;;;10.00;99.90;;;;;;5032284;28;20195;-71
2022/05/30 03:30:27;;;;;;;4.03;2.17;;;10.10;99.90;;;;;;5033171;28;20428;-67
2022/05/30 03:32:53;;;;;;;2.80;1.87;;;10.00;99.90;;;;;;5033293;28;20408;-67
2022/05/30 03:35:19;;;;;;;2.87;2.30;;;10.10;99.90;;;;;;5031919;28;20438;-71
2022/05/30 03:37:45;;;;;;;3.53;2.23;;;10.10;99.90;;;;;;5032218;28;20175;-72
2022/05/30 03:40:14;;;;;;;6.40;2.23;;;10.20;99.90;;;;;;5036796;28;20379;-73
2022/05/30 03:42:39;;;;;;;2.73;2.20;;;10.10;99.90;;;;;;5037062;28;20400;-72
2022/05/30 03:45:07;;;;;;;6.37;2.50;;;10.10;99.90;;;;;;5036857;28;20399;-71
2022/05/30 03:47:50;;;;;;;5.20;2.37;;;10.10;99.90;;;;;;5035797;28;20667;-69
2022/05/30 03:50:22;;;;;;;5.77;4.03;;;10.10;99.90;;;;;;5035744;28;20458;-72
2022/05/30 03:52:48;;;;;;;5.70;2.33;;;10.20;99.90;;;;;;5036653;28;20381;-68
2022/05/30 03:55:17;;;;;;;2.00;1.80;;;10.20;99.90;;;;;;5035382;28;20399;-73
2022/05/30 03:57:43;;;;;;;10.03;4.10;;;10.20;99.90;;;;;;5035707;28;20171;-71
2022/05/30 04:00:13;;;;;;;3.67;2.20;;;10.30;99.90;;;;;;5036680;28;20433;-72
2022/05/30 04:02:38;;;;;;;10.13;2.63;;;10.30;99.90;;;;;;5036424;28;20388;-67
2022/05/30 04:05:05;;;;;;;3.70;2.00;;;10.30;99.90;;;;;;5036509;28;20388;-68
2022/05/30 04:07:30;;;;;;;7.60;2.50;;;10.30;99.90;;;;;;5034335;28;20258;-71
2022/05/30 04:09:56;;;;;;;5.33;1.73;;;10.30;99.90;;;;;;5035194;28;20440;-71
2022/05/30 04:12:23;;;;;;;2.27;2.07;;;10.30;99.90;;;;;;5036357;28;20172;-68
2022/05/30 04:14:56;;;;;;;3.43;2.43;;;10.30;99.90;;;;;;5036343;28;20171;-71
2022/05/30 04:17:23;;;;;;;3.20;2.13;;;10.40;99.90;;;;;;5035372;28;20388;-68
2022/05/30 04:19:49;;;;;;;2.40;2.20;;;10.40;99.90;;;;;;5036065;28;20491;-68
2022/05/30 04:22:15;;;;;;;2.83;2.00;;;10.40;99.90;;;;;;5036211;28;20398;-68
2022/05/30 04:24:40;;;;;;;3.37;2.13;;;10.50;99.90;;;;;;5035020;28;20275;-68
2022/05/30 04:27:06;;;;;;;4.50;2.07;;;10.40;99.90;;;;;;5035267;28;20247;-67
2022/05/30 04:29:32;;;;;;;3.73;1.70;;;10.40;99.90;;;;;;5035870;28;20294;-69
2022/05/30 04:31:59;;;;;;;1.80;1.70;;;10.50;99.90;;;;;;5036125;28;20175;-67
2022/05/30 04:34:25;;;;;;;6.63;2.50;;;10.50;99.90;;;;;;5036004;28;20485;-68
2022/05/30 04:36:50;;;;;;;9.80;4.80;;;10.50;99.90;;;;;;5035061;28;20464;-71
2022/05/30 04:39:16;;;;;;;11.37;2.80;;;10.50;99.90;;;;;;5034698;28;20210;-71
2022/05/30 04:41:42;;;;;;;9.00;2.27;;;10.50;99.90;;;;;;5035723;28;20536;-72
2022/05/30 04:44:07;;;;;;;2.47;2.13;;;10.60;99.90;;;;;;5035799;28;20258;-67
2022/05/30 04:46:34;;;;;;;2.40;2.20;;;10.70;99.90;;;;;;5034772;28;20249;-68
2022/05/30 04:49:00;;;;;;;10.37;2.17;;;10.60;99.90;;;;;;5035396;28;20195;-71
2022/05/30 04:51:26;;;;;;;2.50;2.07;;;10.60;99.90;;;;;;5035589;28;20425;-68
2022/05/30 04:53:52;;;;;;;2.30;1.77;;;10.70;99.90;;;;;;5035484;28;20199;-68
2022/05/30 04:56:19;;;;;;;7.00;2.80;;;10.70;99.90;;;;;;5034217;28;20911;-73
2022/05/30 04:58:46;;;;;;;2.60;1.90;;;10.80;99.90;;;;;;5034739;28;20191;-68
2022/05/30 05:01:12;;;;;;;5.47;2.17;;;10.90;99.90;;;;;;5034613;28;20459;-72
2022/05/30 05:03:39;;;;;;;3.23;1.80;;;10.90;99.90;;;;;;5035244;28;20381;-68
2022/05/30 05:06:17;;;;;;;5.93;2.23;;;11.00;99.90;;;;;;5030765;28;20440;-70
2022/05/30 05:08:43;;;;;;;3.23;2.07;;;11.00;99.90;;;;;;5034825;28;20429;-67
2022/05/30 05:11:12;;;;;;;5.83;1.70;;;11.10;99.90;;;;;;5035242;28;20492;-67
2022/05/30 05:13:37;;;;;;;5.37;2.40;;;11.10;99.90;;;;;;5035049;28;20494;-71
2022/05/30 05:16:03;;;;;;;3.97;3.00;;;11.20;99.90;;;;;;5035003;28;20973;-72
2022/05/30 05:18:29;;;;;;;2.87;2.33;;;11.20;99.90;;;;;;5034196;28;20269;-71
2022/05/30 05:20:55;;;;;;;5.03;2.23;;;11.20;99.90;;;;;;5034041;28;20458;-67
2022/05/30 05:23:20;;;;;;;4.00;2.17;;;11.20;99.90;;;;;;5033854;28;20179;-68
2022/05/30 05:25:46;;;;;;;3.80;2.27;;;11.20;99.90;;;;;;5034946;28;20191;-71
2022/05/30 05:28:12;;;;;;;2.93;2.73;;;11.20;99.90;;;;;;5033915;28;20187;-67
2022/05/30 05:30:40;;;;;;;6.03;2.10;;;11.30;99.90;;;;;;5034864;28;20279;-66
2022/05/30 05:33:06;;;;;;;3.87;2.00;;;11.30;99.90;;;;;;5034809;28;20175;-66
2022/05/30 05:35:32;;;;;;;8.13;2.20;;;11.30;99.90;;;;;;5035008;28;20480;-69
2022/05/30 05:38:00;;;;;;;4.53;2.00;;;11.30;99.90;;;;;;5032738;28;20457;-68
2022/05/30 05:40:28;;;;;;;2.17;1.97;;;11.30;99.90;;;;;;5034711;28;20389;-67
2022/05/30 05:42:54;;;;;;;3.50;1.70;;;11.40;99.90;;;;;;5034786;28;20854;-73
2022/05/30 05:45:20;;;;;;;4.03;2.20;;;11.40;99.90;;;;;;5034676;28;20902;-67
2022/05/30 05:47:45;;;;;;;2.20;1.87;;;11.30;99.90;;;;;;5033714;28;20369;-67
2022/05/30 05:50:11;;;;;;;4.13;1.90;;;11.40;99.90;;;;;;5034275;28;20515;-72
2022/05/30 05:52:37;;;;;;;6.33;2.17;;;11.40;99.90;;;;;;5033382;28;20273;-67
2022/05/30 05:55:03;;;;;;;2.03;1.83;;;11.40;99.90;;;;;;5033173;28;20215;-67
2022/05/30 05:57:29;;;;;;;2.07;1.87;;;11.50;99.90;;;;;;5032429;28;20845;-73
2022/05/30 05:59:54;;;;;;;2.40;1.80;;;11.50;99.90;;;;;;5034138;28;20437;-67
2022/05/30 06:02:22;;;;;;;2.90;2.27;;;11.60;99.90;;;;;;5033665;28;20167;-69
2022/05/30 06:04:48;;;;;;;3.67;2.77;;;11.60;99.90;;;;;;5034396;28;20168;-67
2022/05/30 06:07:14;;;;;;;2.13;2.03;;;11.50;99.90;;;;;;5031752;28;20417;-73
2022/05/30 06:09:39;;;;;;;4.43;1.70;;;11.70;99.90;;;;;;5031818;28;20440;-71
2022/05/30 06:12:07;;;;;;;3.57;1.60;;;11.70;99.90;;;;;;5034054;28;20180;-73
2022/05/30 06:14:33;;;;;;;3.43;1.90;;;11.70;99.90;;;;;;5033895;28;20170;-75
2022/05/30 06:17:00;;;;;;;4.47;3.07;;;11.80;99.90;;;;;;5033206;28;20389;-74
2022/05/30 06:19:26;;;;;;;6.17;2.33;;;11.90;99.90;;;;;;5033815;28;20434;-70
2022/05/30 06:21:52;;;;;;;3.43;1.80;;;11.70;99.90;;;;;;5033029;28;20830;-72
2022/05/30 06:24:17;;;;;;;3.47;3.17;;;11.70;99.90;;;;;;5033871;28;20175;-77
2022/05/30 06:26:44;;;;;;;4.87;2.80;;;11.80;99.90;;;;;;5032266;28;20199;-72
2022/05/30 06:29:11;;;;;;;3.87;2.30;;;11.90;99.90;;;;;;5032809;28;20203;-72
2022/05/30 06:31:37;;;;;;;7.03;2.63;;;11.90;99.90;;;;;;5022938;28;20402;-76
2022/05/30 06:34:03;;;;;;;5.83;2.37;;;12.00;99.90;;;;;;5014043;28;20749;-75
